createdAt,value
2022-12-05T00:01:42.739Z,40.35
2022-12-05T00:04:13.929Z,40.33
2022-12-05T00:06:43.276Z,40.15
2022-12-05T00:09:13.090Z,40.27
2022-12-05T00:11:44.593Z,40.16
2022-12-05T00:14:13.514Z,40.21
2022-12-05T00:16:43.194Z,40.41
2022-12-05T00:19:14.468Z,40.56
2022-12-05T00:21:43.135Z,40.46
2022-12-05T00:24:14.073Z,40.77
2022-12-05T00:26:43.862Z,40.57
2022-12-05T00:31:40.368Z,40.70
2022-12-05T00:34:08.892Z,40.92
2022-12-05T00:36:37.440Z,40.70
2022-12-05T00:41:35.708Z,40.72
2022-12-05T00:46:34.880Z,40.72
2022-12-05T00:49:04.351Z,40.64
2022-12-05T00:51:34.077Z,40.56
2022-12-05T00:54:07.387Z,40.53
2022-12-05T00:56:36.035Z,40.38
2022-12-05T00:59:05.930Z,40.47
2022-12-05T01:01:35.531Z,40.43
2022-12-05T01:04:07.439Z,40.58
2022-12-05T01:06:35.742Z,40.46
2022-12-05T01:09:04.382Z,40.48
2022-12-05T01:11:37.646Z,40.52
2022-12-05T01:14:10.931Z,40.58
2022-12-05T01:16:40.803Z,40.31
2022-12-05T01:19:12.843Z,40.59
2022-12-05T01:21:41.249Z,40.40
2022-12-05T01:24:09.957Z,40.34
2022-12-05T01:26:38.376Z,40.34
2022-12-05T01:29:07.079Z,40.36
2022-12-05T01:31:37.994Z,40.22
2022-12-05T01:34:08.331Z,40.34
2022-12-05T01:36:36.704Z,40.36
2022-12-05T01:39:05.296Z,40.32
2022-12-05T01:41:35.515Z,40.36
2022-12-05T01:44:05.821Z,40.25
2022-12-05T01:46:37.532Z,40.28
2022-12-05T01:49:09.320Z,40.29
2022-12-05T01:51:39.117Z,40.13
2022-12-05T01:54:07.732Z,40.24
2022-12-05T01:56:36.141Z,40.17
2022-12-05T01:59:06.665Z,40.23
2022-12-05T02:01:36.473Z,40.04
2022-12-05T02:04:05.505Z,40.20
2022-12-05T02:06:34.765Z,40.14
2022-12-05T02:09:03.198Z,40.07
2022-12-05T02:11:32.741Z,40.12
2022-12-05T02:14:19.225Z,40.30
2022-12-05T02:16:58.208Z,40.07
2022-12-05T02:19:56.229Z,40.03
2022-12-05T02:23:03.883Z,40.09
2022-12-05T02:26:02.033Z,39.92
2022-12-05T02:28:52.485Z,39.87
2022-12-05T02:31:24.768Z,39.90
2022-12-05T02:33:57.191Z,39.93
2022-12-05T02:36:36.378Z,39.83
2022-12-05T02:39:07.856Z,40.09
2022-12-05T02:41:39.097Z,39.98
2022-12-05T02:44:09.224Z,39.81
2022-12-05T02:46:39.938Z,40.05
2022-12-05T02:49:11.408Z,39.82
2022-12-05T02:51:43.586Z,39.75
2022-12-05T02:54:15.157Z,39.88
2022-12-05T02:56:45.123Z,39.91
2022-12-05T02:59:17.263Z,39.93
2022-12-05T03:01:50.140Z,39.89
2022-12-05T03:04:19.154Z,39.84
2022-12-05T03:06:49.882Z,39.81
2022-12-05T03:09:21.183Z,39.79
2022-12-05T03:11:52.430Z,39.88
2022-12-05T03:14:23.554Z,39.74
2022-12-05T03:16:54.999Z,39.63
2022-12-05T03:19:27.463Z,39.68
2022-12-05T03:21:59.592Z,39.69
2022-12-05T03:24:27.962Z,39.63
2022-12-05T03:27:00.744Z,39.72
2022-12-05T03:29:33.076Z,39.76
2022-12-05T03:32:09.059Z,39.64
2022-12-05T03:34:47.078Z,39.61
2022-12-05T03:37:20.256Z,39.66
2022-12-05T03:39:51.217Z,39.58
2022-12-05T03:42:22.271Z,39.52
2022-12-05T03:44:53.822Z,39.68
2022-12-05T03:47:27.261Z,39.59
2022-12-05T03:49:58.334Z,39.66
2022-12-05T03:52:30.107Z,39.41
2022-12-05T03:54:59.492Z,39.37
2022-12-05T03:57:30.519Z,39.56
2022-12-05T04:00:01.301Z,39.41
2022-12-05T04:02:33.467Z,39.47
2022-12-05T04:05:03.994Z,39.46
2022-12-05T04:07:33.400Z,39.58
2022-12-05T04:10:04.706Z,39.54
2022-12-05T04:12:33.227Z,39.56
2022-12-05T04:15:04.442Z,39.49
2022-12-05T04:17:36.633Z,39.40
2022-12-05T04:20:24.338Z,39.37
2022-12-05T04:22:52.912Z,39.41
2022-12-05T04:25:35.650Z,39.33
2022-12-05T04:28:21.386Z,39.46
2022-12-05T04:30:52.081Z,39.30
2022-12-05T04:33:24.706Z,39.40
2022-12-05T04:35:55.773Z,39.35
2022-12-05T04:38:26.645Z,39.33
2022-12-05T04:40:58.173Z,39.21
2022-12-05T04:43:27.780Z,39.36
2022-12-05T04:45:56.596Z,39.31
2022-12-05T04:48:26.964Z,39.21
2022-12-05T04:50:56.588Z,39.19
2022-12-05T04:53:26.737Z,39.19
2022-12-05T04:55:55.909Z,39.18
2022-12-05T04:58:27.271Z,39.23
2022-12-05T05:00:59.548Z,39.34
2022-12-05T05:03:32.223Z,39.09
2022-12-05T05:06:00.742Z,39.22
2022-12-05T05:08:29.968Z,39.18
2022-12-05T05:11:06.278Z,39.14
2022-12-05T05:13:34.748Z,39.29
2022-12-05T05:16:03.322Z,39.16
2022-12-05T05:18:33.565Z,39.18
2022-12-05T05:21:02.188Z,39.16
2022-12-05T05:23:30.613Z,39.13
2022-12-05T05:25:59.106Z,39.03
2022-12-05T05:28:27.574Z,39.05
2022-12-05T05:30:56.062Z,38.97
2022-12-05T05:33:24.465Z,39.17
2022-12-05T05:35:54.388Z,39.10
2022-12-05T05:38:22.783Z,39.02
2022-12-05T05:40:51.238Z,39.02
2022-12-05T05:43:19.730Z,38.92
2022-12-05T05:45:48.148Z,39.04
2022-12-05T05:48:16.667Z,39.10
2022-12-05T05:50:45.149Z,39.15
2022-12-05T05:53:15.066Z,39.05
2022-12-05T05:55:43.596Z,39.03
2022-12-05T05:58:12.026Z,38.95
2022-12-05T06:00:40.557Z,39.00
2022-12-05T06:03:09.181Z,39.01
2022-12-05T06:05:37.995Z,38.96
2022-12-05T06:08:06.751Z,38.86
2022-12-05T06:10:37.167Z,39.00
2022-12-05T06:13:05.814Z,39.09
2022-12-05T06:15:34.172Z,39.06
2022-12-05T06:18:02.634Z,39.03
2022-12-05T06:20:31.192Z,39.12
2022-12-05T06:22:59.656Z,38.99
2022-12-05T06:25:28.103Z,38.98
2022-12-05T06:27:57.912Z,39.09
2022-12-05T06:30:26.288Z,38.96
2022-12-05T06:32:54.686Z,38.96
2022-12-05T06:35:23.154Z,39.18
2022-12-05T06:37:51.516Z,39.04
2022-12-05T06:40:21.025Z,38.89
2022-12-05T06:42:49.580Z,39.07
2022-12-05T06:45:19.547Z,39.39
2022-12-05T06:47:48.021Z,39.16
2022-12-05T06:50:16.662Z,39.24
2022-12-05T06:52:45.209Z,39.31
2022-12-05T06:55:13.672Z,38.89
2022-12-05T06:57:42.179Z,39.16
2022-12-05T07:00:29.062Z,38.99
2022-12-05T07:02:59.212Z,39.10
2022-12-05T07:05:27.725Z,39.16
2022-12-05T07:07:56.164Z,39.11
2022-12-05T07:10:24.855Z,39.04
2022-12-05T07:12:53.378Z,39.16
2022-12-05T07:15:21.932Z,39.13
2022-12-05T07:17:50.442Z,39.28
2022-12-05T07:20:20.609Z,39.39
2022-12-05T07:22:49.100Z,39.32
2022-12-05T07:25:20.171Z,39.11
2022-12-05T07:27:48.889Z,39.23
2022-12-05T07:30:17.648Z,39.26
2022-12-05T07:32:46.086Z,39.41
2022-12-05T07:35:14.506Z,39.44
2022-12-05T07:37:44.223Z,39.58
2022-12-05T07:40:14.572Z,39.27
2022-12-05T07:42:43.006Z,39.18
2022-12-05T07:45:12.477Z,39.41
2022-12-05T07:47:41.098Z,39.45
2022-12-05T07:50:10.211Z,39.33
2022-12-05T07:52:38.820Z,39.50
2022-12-05T07:55:09.992Z,39.36
2022-12-05T07:57:38.540Z,39.47
2022-12-05T08:00:08.720Z,39.47
2022-12-05T08:02:40.615Z,39.23
2022-12-05T08:05:09.874Z,39.39
2022-12-05T08:07:38.390Z,39.40
2022-12-05T08:10:09.826Z,39.19
2022-12-05T08:12:39.101Z,39.48
2022-12-05T08:15:10.160Z,39.23
2022-12-05T08:17:38.876Z,39.44
2022-12-05T08:20:09.268Z,39.41
2022-12-05T08:22:37.855Z,39.22
2022-12-05T08:25:07.346Z,39.24
2022-12-05T08:27:37.165Z,39.36
2022-12-05T08:30:07.470Z,39.20
2022-12-05T08:32:36.007Z,39.39
2022-12-05T08:35:04.855Z,39.31
2022-12-05T08:37:33.382Z,39.16
2022-12-05T08:40:01.797Z,39.25
2022-12-05T08:42:30.213Z,39.19
2022-12-05T08:45:00.316Z,39.32
2022-12-05T08:47:29.444Z,39.10
2022-12-05T08:49:59.765Z,39.30
2022-12-05T08:52:28.492Z,39.28
2022-12-05T08:54:57.085Z,39.33
2022-12-05T08:57:26.038Z,39.45
2022-12-05T08:59:54.415Z,39.32
2022-12-05T09:02:24.241Z,39.07
2022-12-05T09:04:54.197Z,39.22
2022-12-05T09:07:22.684Z,39.02
2022-12-05T09:09:51.112Z,38.98
2022-12-05T09:12:19.683Z,39.19
2022-12-05T09:14:48.075Z,39.17
2022-12-05T09:17:16.533Z,39.23
2022-12-05T09:19:46.490Z,39.35
2022-12-05T09:22:14.938Z,39.32
2022-12-05T09:24:43.335Z,39.47
2022-12-05T09:27:11.754Z,39.36
2022-12-05T09:29:40.506Z,39.67
2022-12-05T09:32:08.951Z,39.48
2022-12-05T09:34:37.882Z,39.57
2022-12-05T09:37:30.986Z,39.64
2022-12-05T09:39:56.386Z,39.59
2022-12-05T09:42:40.776Z,39.73
2022-12-05T09:45:25.555Z,39.64
2022-12-05T09:47:59.129Z,39.68
2022-12-05T09:50:29.320Z,39.10
2022-12-05T09:53:08.059Z,39.34
2022-12-05T09:55:48.432Z,39.48
2022-12-05T09:58:29.240Z,39.47
2022-12-05T10:01:03.892Z,39.46
2022-12-05T10:03:40.204Z,39.57
2022-12-05T10:06:15.188Z,39.46
2022-12-05T10:09:11.558Z,39.46
2022-12-05T10:11:44.221Z,39.47
2022-12-05T10:14:17.576Z,39.57
2022-12-05T10:16:49.698Z,39.61
2022-12-05T10:19:20.095Z,39.50
2022-12-05T10:21:52.185Z,39.42
2022-12-05T10:24:27.838Z,39.50
2022-12-05T10:26:58.206Z,39.48
2022-12-05T10:29:29.531Z,39.37
2022-12-05T10:32:06.668Z,39.32
2022-12-05T10:34:36.694Z,39.62
2022-12-05T10:37:11.710Z,39.34
2022-12-05T10:39:41.573Z,39.36
2022-12-05T10:42:13.679Z,39.40
2022-12-05T10:44:42.252Z,39.37
2022-12-05T10:47:10.957Z,39.58
2022-12-05T10:49:39.520Z,39.25
2022-12-05T10:52:07.982Z,39.32
2022-12-05T10:54:45.871Z,39.35
2022-12-05T10:57:23.673Z,39.36
2022-12-05T10:59:52.235Z,39.40
2022-12-05T11:02:26.231Z,39.47
2022-12-05T11:04:55.056Z,39.39
2022-12-05T11:07:31.833Z,39.33
2022-12-05T11:10:03.024Z,39.30
2022-12-05T11:12:37.612Z,39.37
2022-12-05T11:15:08.539Z,39.27
2022-12-05T11:17:38.644Z,39.34
2022-12-05T11:20:37.175Z,39.28
2022-12-05T11:23:26.200Z,39.34
2022-12-05T11:25:56.386Z,39.45
2022-12-05T11:28:31.873Z,39.41
2022-12-05T11:31:02.674Z,39.35
2022-12-05T11:33:32.037Z,39.54
2022-12-05T11:36:13.031Z,39.24
2022-12-05T11:38:41.521Z,39.36
2022-12-05T11:41:45.830Z,39.48
2022-12-05T11:44:30.329Z,39.30
2022-12-05T11:47:05.160Z,39.47
2022-12-05T11:49:44.996Z,39.38
2022-12-05T11:52:22.533Z,39.34
2022-12-05T11:55:06.312Z,39.18
2022-12-05T11:58:15.135Z,39.25
2022-12-05T12:00:51.409Z,39.38
2022-12-05T12:03:56.857Z,39.11
2022-12-05T12:06:30.314Z,39.27
2022-12-05T12:09:13.999Z,39.38
2022-12-05T12:11:45.689Z,39.43
2022-12-05T12:14:20.673Z,39.60
2022-12-05T12:16:55.309Z,39.34
2022-12-05T12:19:40.192Z,39.40
2022-12-05T12:22:32.125Z,39.69
2022-12-05T12:25:25.287Z,39.89
2022-12-05T12:28:04.498Z,39.80
2022-12-05T12:30:46.420Z,39.92
2022-12-05T12:33:21.540Z,39.83
2022-12-05T12:35:58.007Z,39.49
2022-12-05T12:38:40.956Z,39.71
2022-12-05T12:41:13.567Z,39.62
2022-12-05T12:43:54.398Z,39.73
2022-12-05T12:46:34.251Z,39.73
2022-12-05T12:49:44.926Z,39.72
2022-12-05T12:52:16.150Z,39.88
2022-12-05T12:55:05.661Z,39.58
2022-12-05T12:57:47.831Z,39.72
2022-12-05T13:00:25.136Z,39.65
2022-12-05T13:02:58.428Z,39.68
2022-12-05T13:05:34.592Z,39.83
2022-12-05T13:08:06.002Z,39.74
2022-12-05T13:10:36.688Z,39.77
2022-12-05T13:13:06.165Z,39.83
2022-12-05T13:15:37.361Z,39.53
2022-12-05T13:18:07.229Z,39.71
2022-12-05T13:20:36.069Z,39.48
2022-12-05T13:23:08.100Z,39.70
2022-12-05T13:25:39.957Z,39.55
2022-12-05T13:28:21.429Z,39.60
2022-12-05T13:31:01.983Z,39.42
2022-12-05T13:33:35.263Z,39.55
2022-12-05T13:36:29.502Z,39.58
2022-12-05T13:39:17.197Z,39.49
2022-12-05T13:42:04.996Z,39.39
2022-12-05T13:44:40.883Z,39.76
2022-12-05T13:47:22.054Z,39.55
2022-12-05T13:49:53.761Z,39.56
2022-12-05T13:52:25.360Z,39.46
2022-12-05T13:54:57.808Z,39.47
2022-12-05T13:57:53.321Z,39.55
2022-12-05T14:00:33.867Z,39.46
2022-12-05T14:03:08.588Z,39.33
2022-12-05T14:05:44.812Z,39.50
2022-12-05T14:08:54.044Z,39.44
2022-12-05T14:11:22.418Z,39.44
2022-12-05T14:13:51.006Z,39.63
2022-12-05T14:16:50.551Z,39.73
2022-12-05T14:20:09.127Z,39.41
2022-12-05T14:23:09.596Z,39.65
2022-12-05T14:25:58.829Z,39.68
2022-12-05T14:28:51.462Z,39.92
2022-12-05T14:31:36.352Z,39.71
2022-12-05T14:34:20.804Z,39.75
2022-12-05T14:37:00.733Z,39.97
2022-12-05T14:39:38.987Z,39.73
2022-12-05T14:42:22.217Z,40.10
2022-12-05T14:44:51.260Z,40.02
2022-12-05T14:47:21.972Z,39.99
2022-12-05T14:49:55.096Z,40.00
2022-12-05T14:52:25.254Z,39.89
2022-12-05T14:54:59.364Z,39.74
2022-12-05T14:57:27.857Z,39.72
2022-12-05T14:59:58.218Z,39.72
2022-12-05T15:02:28.779Z,39.60
2022-12-05T15:05:00.851Z,39.72
2022-12-05T15:07:33.824Z,39.93
2022-12-05T15:10:06.091Z,40.08
2022-12-05T15:12:40.203Z,39.85
2022-12-05T15:15:17.542Z,39.67
2022-12-05T15:17:48.718Z,39.91
2022-12-05T15:20:23.436Z,40.00
2022-12-05T15:22:51.868Z,39.61
2022-12-05T15:25:32.112Z,39.74
2022-12-05T15:28:04.539Z,39.87
2022-12-05T15:30:34.015Z,39.77
2022-12-05T15:33:02.648Z,39.98
2022-12-05T15:35:33.408Z,39.92
2022-12-05T15:38:04.065Z,40.03
2022-12-05T15:40:37.904Z,39.83
2022-12-05T15:43:30.884Z,39.90
2022-12-05T15:46:25.123Z,40.34
2022-12-05T15:48:54.133Z,40.03
2022-12-05T15:51:25.575Z,40.12
2022-12-05T15:54:16.647Z,40.06
2022-12-05T15:56:48.856Z,40.21
2022-12-05T15:59:20.443Z,39.99
2022-12-05T16:01:51.890Z,40.21
2022-12-05T16:04:29.175Z,40.75
2022-12-05T16:06:58.353Z,40.65
2022-12-05T16:09:29.944Z,40.39
2022-12-05T16:12:01.522Z,41.18
2022-12-05T16:17:21.694Z,40.85
2022-12-05T16:19:50.289Z,40.64
2022-12-05T16:22:24.197Z,40.36
2022-12-05T16:25:02.094Z,40.24
2022-12-05T16:27:34.963Z,40.44
2022-12-05T16:30:15.253Z,40.72
2022-12-05T16:32:43.990Z,40.60
2022-12-05T16:35:38.942Z,40.35
2022-12-05T16:38:12.141Z,40.63
2022-12-05T16:40:41.890Z,40.37
2022-12-05T16:43:22.257Z,40.67
2022-12-05T16:45:51.551Z,40.73
2022-12-05T16:48:23.371Z,40.47
2022-12-05T16:50:53.393Z,40.73
2022-12-05T16:53:30.774Z,40.43
2022-12-05T16:55:59.851Z,40.64
2022-12-05T16:58:31.623Z,40.74
2022-12-05T17:01:04.587Z,40.93
2022-12-05T17:03:34.768Z,40.77
2022-12-05T17:06:04.627Z,40.54
2022-12-05T17:08:33.028Z,40.75
2022-12-05T17:11:02.010Z,40.73
2022-12-05T17:13:32.412Z,41.47
2022-12-05T17:16:00.905Z,41.05
2022-12-05T17:18:31.699Z,41.64
2022-12-05T17:21:01.662Z,40.99
2022-12-05T17:23:30.213Z,41.13
2022-12-05T17:25:59.506Z,40.99
2022-12-05T17:28:28.187Z,41.33
2022-12-05T17:30:58.299Z,41.16
2022-12-05T17:33:26.965Z,41.42
2022-12-05T17:35:55.398Z,41.09
2022-12-05T17:38:23.889Z,41.16
2022-12-05T17:40:52.208Z,41.32
2022-12-05T17:43:24.971Z,41.16
2022-12-05T17:45:54.803Z,41.03
2022-12-05T17:48:26.492Z,41.21
2022-12-05T17:50:57.729Z,41.27
2022-12-05T17:53:26.311Z,40.99
2022-12-05T17:55:54.635Z,41.12
2022-12-05T17:58:23.042Z,41.19
2022-12-05T18:00:51.507Z,41.38
2022-12-05T18:03:20.198Z,41.63
2022-12-05T18:05:50.067Z,41.94
2022-12-05T18:08:18.746Z,41.57
2022-12-05T18:10:48.670Z,41.57
2022-12-05T18:13:17.332Z,41.43
2022-12-05T18:15:48.214Z,41.74
2022-12-05T18:18:19.734Z,41.51
2022-12-05T18:20:49.697Z,41.70
2022-12-05T18:23:18.057Z,41.61
2022-12-05T18:25:47.187Z,41.39
2022-12-05T18:28:17.977Z,41.47
2022-12-05T18:30:49.304Z,41.69
2022-12-05T18:33:17.722Z,41.51
2022-12-05T18:35:46.119Z,41.55
2022-12-05T18:38:15.877Z,41.33
2022-12-05T18:40:44.619Z,41.46
2022-12-05T18:43:13.000Z,41.35
2022-12-05T18:45:41.607Z,41.22
2022-12-05T18:48:23.737Z,41.22
2022-12-05T18:51:09.415Z,41.14
2022-12-05T18:53:39.265Z,41.25
2022-12-05T18:56:25.575Z,41.27
2022-12-05T18:58:55.992Z,41.32
2022-12-05T19:01:26.882Z,41.26
2022-12-05T19:03:56.169Z,41.19
2022-12-05T19:06:26.071Z,41.11
2022-12-05T19:08:56.499Z,41.27
2022-12-05T19:11:26.605Z,41.32
2022-12-05T19:13:56.509Z,41.28
2022-12-05T19:16:25.520Z,41.17
2022-12-05T19:18:55.402Z,41.32
2022-12-05T19:21:24.062Z,41.04
2022-12-05T19:23:52.684Z,41.14
2022-12-05T19:26:22.625Z,41.26
2022-12-05T19:28:51.309Z,41.31
2022-12-05T19:31:22.674Z,41.31
2022-12-05T19:33:52.485Z,41.23
2022-12-05T19:36:22.511Z,41.34
2022-12-05T19:38:52.093Z,41.12
2022-12-05T19:41:23.737Z,41.32
2022-12-05T19:43:52.339Z,41.21
2022-12-05T19:46:26.224Z,41.03
2022-12-05T19:48:56.278Z,41.08
2022-12-05T19:53:53.392Z,41.30
2022-12-05T19:58:53.790Z,41.28
2022-12-05T20:01:24.674Z,41.04
2022-12-05T20:03:54.817Z,41.13
2022-12-05T20:06:23.378Z,41.05
2022-12-05T20:11:24.900Z,41.20
2022-12-05T20:13:53.569Z,41.26
2022-12-05T20:16:23.477Z,40.91
2022-12-05T20:18:52.107Z,41.20
2022-12-05T20:21:22.165Z,41.02
2022-12-05T20:23:51.255Z,41.21
2022-12-05T20:26:22.608Z,41.07
2022-12-05T20:28:51.180Z,41.18
2022-12-05T20:31:21.336Z,40.99
2022-12-05T20:33:50.736Z,40.98
2022-12-05T20:36:20.780Z,41.06
2022-12-05T20:38:49.462Z,41.03
2022-12-05T20:41:19.228Z,41.09
2022-12-05T20:43:49.577Z,41.03
2022-12-05T20:46:19.238Z,41.12
2022-12-05T20:48:48.104Z,41.10
2022-12-05T20:51:18.127Z,41.12
2022-12-05T20:53:46.888Z,40.88
2022-12-05T20:56:16.396Z,40.97
2022-12-05T20:58:46.208Z,40.87
2022-12-05T21:01:16.543Z,40.80
2022-12-05T21:03:46.062Z,40.88
2022-12-05T21:06:16.159Z,40.93
2022-12-05T21:08:44.776Z,41.12
2022-12-05T21:11:13.428Z,40.92
2022-12-05T21:13:42.169Z,41.26
2022-12-05T21:16:12.296Z,41.06
2022-12-05T21:18:42.289Z,41.32
2022-12-05T21:21:14.601Z,41.35
2022-12-05T21:23:43.060Z,41.04
2022-12-05T21:26:13.646Z,41.15
2022-12-05T21:28:42.316Z,41.04
2022-12-05T21:31:12.355Z,41.08
2022-12-05T21:33:43.290Z,41.46
2022-12-05T21:36:11.736Z,41.28
2022-12-05T21:38:40.280Z,41.44
2022-12-05T21:41:08.729Z,41.71
2022-12-05T21:43:37.391Z,41.58
2022-12-05T21:46:06.468Z,41.76
2022-12-05T21:48:35.368Z,41.79
2022-12-05T21:51:08.743Z,41.75
2022-12-05T21:53:37.299Z,41.73
2022-12-05T21:56:08.490Z,41.73
2022-12-05T21:58:41.904Z,41.66
2022-12-05T22:01:11.325Z,41.65
2022-12-05T22:03:39.941Z,41.52
2022-12-05T22:06:10.974Z,41.52
2022-12-05T22:08:39.569Z,41.61
2022-12-05T22:11:08.484Z,41.36
2022-12-05T22:13:37.095Z,41.39
2022-12-05T22:16:06.445Z,41.35
2022-12-05T22:18:35.000Z,41.48
2022-12-05T22:21:05.023Z,41.28
2022-12-05T22:23:35.426Z,41.27
2022-12-05T22:26:05.213Z,41.55
2022-12-05T22:28:33.901Z,41.42
2022-12-05T22:31:03.989Z,41.39
2022-12-05T22:33:32.932Z,41.41
2022-12-05T22:36:02.679Z,41.44
2022-12-05T22:38:33.209Z,41.52
2022-12-05T22:41:04.233Z,41.38
2022-12-05T22:43:33.197Z,41.32
2022-12-05T22:46:06.263Z,41.32
2022-12-05T22:48:35.034Z,41.38
2022-12-05T22:51:03.580Z,41.33
2022-12-05T22:53:32.051Z,41.46
2022-12-05T22:56:04.896Z,41.38
2022-12-05T22:58:33.602Z,41.29
2022-12-05T23:01:11.002Z,41.32
2022-12-05T23:03:39.699Z,41.35
2022-12-05T23:06:11.708Z,41.35
2022-12-05T23:08:40.960Z,41.45
2022-12-05T23:11:10.962Z,41.22
2022-12-05T23:13:39.485Z,41.42
2022-12-05T23:16:09.807Z,41.58
2022-12-05T23:18:46.917Z,41.29
2022-12-05T23:21:17.790Z,41.30
2022-12-05T23:23:46.274Z,41.35
2022-12-05T23:26:16.035Z,41.33
2022-12-05T23:28:45.058Z,41.23
2022-12-05T23:31:13.656Z,41.38
2022-12-05T23:33:42.683Z,41.30
2022-12-05T23:36:11.656Z,41.11
2022-12-05T23:38:40.796Z,41.21
2022-12-05T23:41:11.754Z,41.16
2022-12-05T23:43:42.284Z,41.16
2022-12-05T23:46:10.989Z,41.11
2022-12-05T23:48:39.493Z,41.16
2022-12-05T23:51:10.034Z,41.09
2022-12-05T23:53:39.834Z,40.98
2022-12-05T23:56:10.099Z,40.96
2022-12-05T23:58:38.560Z,41.00
